createdAt,value
2018-10-21T00:02:21.416Z,99336.98
2018-10-21T00:04:51.525Z,99336.12
2018-10-21T00:07:21.915Z,99340.84
2018-10-21T00:09:51.972Z,99334.38
2018-10-21T00:12:22.009Z,99332.65
2018-10-21T00:14:52.077Z,99333.94
2018-10-21T00:17:22.071Z,99346.84
2018-10-21T00:19:52.174Z,99340.81
2018-10-21T00:22:28.435Z,99336.91
2018-10-21T00:24:58.694Z,99333.47
2018-10-21T00:27:28.672Z,99330.89
2018-10-21T00:29:58.715Z,99326.16
2018-10-21T00:32:34.129Z,99318.40
2018-10-21T00:35:04.203Z,99315.81
2018-10-21T00:37:34.249Z,99324.39
2018-10-21T00:40:04.363Z,99327.42
2018-10-21T00:42:34.451Z,99328.27
2018-10-21T00:45:04.590Z,99324.39
2018-10-21T00:47:34.567Z,99318.82
2018-10-21T00:50:05.679Z,99316.21
2018-10-21T00:52:35.713Z,99322.25
2018-10-21T00:55:07.082Z,99331.73
2018-10-21T00:57:37.121Z,99337.33
2018-10-21T01:00:09.016Z,99333.47
2018-10-21T01:02:39.105Z,99341.22
2018-10-21T01:05:10.459Z,99334.75
2018-10-21T01:07:40.490Z,99336.87
2018-10-21T01:10:11.876Z,99336.42
2018-10-21T01:12:42.234Z,99344.18
2018-10-21T01:15:13.182Z,99342.52
2018-10-21T01:17:43.128Z,99348.10
2018-10-21T01:20:13.439Z,99348.13
2018-10-21T01:22:43.427Z,99340.41
2018-10-21T01:25:13.480Z,99334.39
2018-10-21T01:27:43.543Z,99330.10
2018-10-21T01:30:13.667Z,99333.55
2018-10-21T01:32:43.834Z,99327.95
2018-10-21T01:35:13.834Z,99324.08
2018-10-21T01:37:43.866Z,99319.31
2018-10-21T01:40:59.476Z,99327.94
2018-10-21T01:43:31.534Z,99323.61
2018-10-21T01:46:02.444Z,99328.38
2018-10-21T01:48:33.067Z,99321.89
2018-10-21T01:51:03.211Z,99317.17
2018-10-21T01:53:33.240Z,99313.70
2018-10-21T01:56:03.338Z,99311.12
2018-10-21T01:58:33.444Z,99311.53
2018-10-21T02:01:03.520Z,99304.22
2018-10-21T02:03:33.562Z,99305.09
2018-10-21T02:06:03.627Z,99305.50
2018-10-21T02:08:33.750Z,99306.34
2018-10-21T02:11:03.796Z,99302.44
2018-10-21T02:13:33.984Z,99305.42
2018-10-21T02:16:04.060Z,99307.55
2018-10-21T02:18:34.149Z,99306.63
2018-10-21T02:21:04.297Z,99314.81
2018-10-21T02:23:34.306Z,99316.97
2018-10-21T02:26:04.340Z,99318.22
2018-10-21T02:28:34.326Z,99311.33
2018-10-21T02:31:04.457Z,99313.91
2018-10-21T02:33:34.540Z,99311.75
2018-10-21T02:36:04.496Z,99310.03
2018-10-21T02:38:34.508Z,99308.73
2018-10-21T02:41:26.909Z,99318.66
2018-10-21T02:43:56.974Z,99316.07
2018-10-21T02:46:27.330Z,99319.91
2018-10-21T02:48:58.250Z,99317.75
2018-10-21T02:51:28.330Z,99322.02
2018-10-21T02:53:58.348Z,99334.53
2018-10-21T02:56:28.506Z,99329.78
2018-10-21T02:58:58.529Z,99333.67
2018-10-21T03:01:28.504Z,99328.45
2018-10-21T03:03:58.497Z,99333.62
2018-10-21T03:06:28.558Z,99333.20
2018-10-21T03:08:58.631Z,99330.17
2018-10-21T03:11:28.682Z,99334.02
2018-10-21T03:13:58.684Z,99337.90
2018-10-21T03:16:28.779Z,99335.31
2018-10-21T03:18:58.842Z,99342.21
2018-10-21T03:21:28.930Z,99334.44
2018-10-21T03:23:58.928Z,99335.73
2018-10-21T03:26:29.038Z,99339.63
2018-10-21T03:28:59.066Z,99340.09
2018-10-21T03:31:29.136Z,99344.41
2018-10-21T03:33:59.296Z,99343.55
2018-10-21T03:36:29.312Z,99344.84
2018-10-21T03:38:59.463Z,99350.45
2018-10-21T03:41:29.582Z,99344.84
2018-10-21T03:43:59.608Z,99347.00
2018-10-21T03:46:29.664Z,99346.96
2018-10-21T03:48:59.779Z,99345.23
2018-10-21T03:51:29.919Z,99344.80
2018-10-21T03:54:00.053Z,99339.14
2018-10-21T03:56:30.090Z,99343.88
2018-10-21T03:59:00.154Z,99345.17
2018-10-21T04:01:30.181Z,99334.39
2018-10-21T04:04:00.318Z,99330.55
2018-10-21T04:06:30.372Z,99328.83
2018-10-21T04:09:00.380Z,99328.41
2018-10-21T04:11:30.457Z,99329.73
2018-10-21T04:14:03.104Z,99323.31
2018-10-21T04:16:33.111Z,99316.03
2018-10-21T04:19:03.211Z,99315.20
2018-10-21T04:21:34.447Z,99310.50
2018-10-21T04:24:04.499Z,99304.50
2018-10-21T04:26:34.689Z,99315.34
2018-10-21T04:29:04.703Z,99311.94
2018-10-21T04:31:34.785Z,99306.38
2018-10-21T04:34:04.948Z,99309.42
2018-10-21T04:36:35.609Z,99309.84
2018-10-21T04:39:33.519Z,99319.34
2018-10-21T04:42:03.505Z,99309.88
2018-10-21T04:44:33.481Z,99312.00
2018-10-21T04:47:03.668Z,99306.87
2018-10-21T04:49:33.550Z,99305.98
2018-10-21T04:52:03.673Z,99313.29
2018-10-21T04:54:36.479Z,99319.30
2018-10-21T04:57:08.299Z,99315.41
2018-10-21T04:59:41.767Z,99320.57
2018-10-21T05:02:11.935Z,99314.55
2018-10-21T05:04:42.064Z,99316.25
2018-10-21T05:07:12.161Z,99312.81
2018-10-21T05:09:42.282Z,99309.38
2018-10-21T05:12:12.421Z,99311.11
2018-10-21T05:14:43.379Z,99313.67
2018-10-21T05:17:13.628Z,99309.83
2018-10-21T05:19:44.896Z,99308.09
2018-10-21T05:22:15.091Z,99307.64
2018-10-21T05:24:45.221Z,99306.77
2018-10-21T05:27:15.596Z,99312.78
2018-10-21T05:29:52.401Z,99314.05
2018-10-21T05:32:22.513Z,99311.48
2018-10-21T05:34:52.602Z,99314.52
2018-10-21T05:37:22.729Z,99313.27
2018-10-21T05:39:52.983Z,99319.28
2018-10-21T05:42:23.059Z,99317.14
2018-10-21T05:44:53.165Z,99321.02
2018-10-21T05:47:23.333Z,99322.27
2018-10-21T05:49:53.457Z,99326.97
2018-10-21T05:52:27.241Z,99325.23
2018-10-21T05:54:57.590Z,99326.50
2018-10-21T05:57:28.507Z,99329.95
2018-10-21T06:00:02.195Z,99330.38
2018-10-21T06:02:33.591Z,99336.84
2018-10-21T06:05:43.699Z,99344.59
2018-10-21T06:08:14.176Z,99352.36
2018-10-21T06:10:48.053Z,99361.44
2018-10-21T06:13:23.936Z,99367.05
2018-10-21T06:15:58.756Z,99368.36
2018-10-21T06:18:29.672Z,99371.81
2018-10-21T06:21:03.283Z,99380.86
2018-10-21T06:23:34.299Z,99374.44
2018-10-21T06:26:05.621Z,99374.88
2018-10-21T06:28:36.915Z,99380.05
2018-10-21T06:31:06.976Z,99379.17
2018-10-21T06:33:37.072Z,99392.95
2018-10-21T06:36:07.065Z,99392.98
2018-10-21T06:38:37.191Z,99393.39
2018-10-21T06:41:07.329Z,99387.77
2018-10-21T06:43:37.355Z,99385.61
2018-10-21T06:46:08.103Z,99382.14
2018-10-21T06:48:39.115Z,99389.47
2018-10-21T06:51:09.203Z,99388.16
2018-10-21T06:53:42.714Z,99396.78
2018-10-21T06:56:12.796Z,99391.17
2018-10-21T06:58:42.815Z,99397.61
2018-10-21T07:01:13.227Z,99400.62
2018-10-21T07:03:43.339Z,99395.39
2018-10-21T07:06:21.377Z,99411.60
2018-10-21T07:08:52.594Z,99411.35
2018-10-21T07:11:22.636Z,99416.09
2018-10-21T07:13:52.654Z,99405.23
2018-10-21T07:16:22.822Z,99394.88
2018-10-21T07:18:53.217Z,99394.79
2018-10-21T07:21:23.232Z,99389.08
2018-10-21T07:23:53.582Z,99395.76
2018-10-21T07:26:23.574Z,99395.95
2018-10-21T07:28:53.661Z,99401.10
2018-10-21T07:31:24.401Z,99391.98
2018-10-21T07:33:57.019Z,99400.08
2018-10-21T07:36:27.801Z,99397.39
2018-10-21T07:38:58.147Z,99392.49
2018-10-21T07:41:28.174Z,99399.20
2018-10-21T07:43:58.746Z,99402.70
2018-10-21T07:46:28.834Z,99399.28
2018-10-21T07:48:58.960Z,99404.78
2018-10-21T07:51:29.040Z,99405.80
2018-10-21T07:53:59.633Z,99397.05
2018-10-21T07:56:30.449Z,99394.29
2018-10-21T07:59:00.666Z,99391.77
2018-10-21T08:01:30.845Z,99392.92
2018-10-21T08:04:02.106Z,99392.06
2018-10-21T08:06:43.226Z,99391.58
2018-10-21T08:09:14.010Z,99394.06
2018-10-21T08:11:44.044Z,99394.58
2018-10-21T08:14:14.492Z,99387.84
2018-10-21T08:16:44.529Z,99385.80
2018-10-21T08:19:14.698Z,99385.56
2018-10-21T08:21:44.702Z,99379.48
2018-10-21T08:24:14.726Z,99381.00
2018-10-21T08:26:44.735Z,99380.14
2018-10-21T08:29:14.864Z,99375.54
2018-10-21T08:31:44.853Z,99382.53
2018-10-21T08:41:43.384Z,99372.73
2018-10-21T08:44:13.665Z,99378.26
2018-10-21T08:46:44.971Z,99376.63
2018-10-21T08:49:16.448Z,99368.53
2018-10-21T08:51:46.798Z,99372.60
2018-10-21T08:54:17.156Z,99367.45
2018-10-21T08:56:47.621Z,99370.27
2018-10-21T08:59:17.919Z,99370.50
2018-10-21T09:01:48.298Z,99364.20
2018-10-21T09:04:18.776Z,99356.55
2018-10-21T09:06:48.987Z,99358.28
2018-10-21T09:09:19.367Z,99355.41
2018-10-21T09:11:49.749Z,99351.11
2018-10-21T09:14:20.045Z,99345.52
2018-10-21T09:16:50.400Z,99347.20
2018-10-21T09:19:20.703Z,99348.05
2018-10-21T09:21:51.013Z,99346.73
2018-10-21T09:24:21.362Z,99334.62
2018-10-21T09:26:51.987Z,99340.44
2018-10-21T09:29:22.295Z,99335.27
2018-10-21T09:31:52.612Z,99341.52
2018-10-21T09:34:22.933Z,99334.33
2018-10-21T09:36:53.333Z,99337.11
2018-10-21T09:39:23.679Z,99337.66
2018-10-21T09:41:54.028Z,99327.28
2018-10-21T09:44:24.511Z,99333.91
2018-10-21T09:46:54.912Z,99337.09
2018-10-21T09:49:25.316Z,99326.47
2018-10-21T09:51:55.806Z,99321.30
2018-10-21T09:54:26.103Z,99328.16
2018-10-21T09:56:56.473Z,99331.11
2018-10-21T09:59:26.815Z,99325.20
2018-10-21T10:02:02.453Z,99328.00
2018-10-21T10:04:32.766Z,99318.10
2018-10-21T10:07:03.390Z,99317.08
2018-10-21T10:09:33.796Z,99318.70
2018-10-21T10:12:04.226Z,99308.17
2018-10-21T10:14:34.647Z,99308.13
2018-10-21T10:17:05.487Z,99307.06
2018-10-21T10:19:35.866Z,99311.21
2018-10-21T10:22:06.323Z,99307.42
2018-10-21T10:24:36.851Z,99305.67
2018-10-21T10:27:07.188Z,99302.03
2018-10-21T10:29:37.626Z,99304.20
2018-10-21T10:32:14.374Z,99292.33
2018-10-21T10:34:44.644Z,99286.35
2018-10-21T10:37:15.091Z,99288.44
2018-10-21T10:39:45.687Z,99278.48
2018-10-21T10:42:16.429Z,99282.15
2018-10-21T10:44:46.828Z,99278.31
2018-10-21T10:47:17.714Z,99272.00
2018-10-21T10:49:48.103Z,99270.50
2018-10-21T10:52:18.718Z,99273.55
2018-10-21T10:54:49.200Z,99258.41
2018-10-21T10:57:19.846Z,99256.48
2018-10-21T10:59:50.266Z,99252.34
2018-10-21T11:02:20.557Z,99249.58
2018-10-21T11:04:50.882Z,99249.52
2018-10-21T11:07:21.311Z,99249.61
2018-10-21T11:09:51.758Z,99253.34
2018-10-21T11:12:23.760Z,99250.20
2018-10-21T11:14:54.197Z,99249.37
2018-10-21T11:17:24.534Z,99243.04
2018-10-21T11:19:54.842Z,99236.50
2018-10-21T11:22:25.261Z,99232.35
2018-10-21T11:24:55.608Z,99232.04
2018-10-21T11:27:26.119Z,99231.90
2018-10-21T11:29:56.455Z,99223.92
2018-10-21T11:32:26.706Z,99219.52
2018-10-21T11:34:57.056Z,99214.75
2018-10-21T11:37:27.437Z,99207.97
2018-10-21T11:39:57.624Z,99210.39
2018-10-21T11:42:27.924Z,99217.66
2018-10-21T11:44:58.307Z,99211.69
2018-10-21T11:47:28.874Z,99201.63
2018-10-21T11:49:59.757Z,99203.77
2018-10-21T11:52:30.363Z,99198.95
2018-10-21T11:55:00.789Z,99193.27
2018-10-21T11:57:31.277Z,99187.17
2018-10-21T12:00:01.791Z,99189.53
2018-10-21T12:02:35.116Z,99189.73
2018-10-21T12:05:05.559Z,99190.23
2018-10-21T12:07:35.947Z,99176.41
2018-10-21T12:10:09.654Z,99186.98
2018-10-21T12:12:40.213Z,99186.40
2018-10-21T12:15:10.601Z,99179.13
2018-10-21T12:17:40.961Z,99182.27
2018-10-21T12:20:11.342Z,99180.70
2018-10-21T12:22:41.730Z,99187.98
2018-10-21T12:25:12.210Z,99183.08
2018-10-21T12:27:42.613Z,99181.81
2018-10-21T12:30:13.129Z,99184.28
2018-10-21T12:32:43.607Z,99178.75
2018-10-21T12:35:14.110Z,99174.99
2018-10-21T12:37:44.516Z,99177.55
2018-10-21T12:40:14.942Z,99164.79
2018-10-21T12:42:45.335Z,99163.09
2018-10-21T12:45:15.702Z,99163.83
2018-10-21T12:47:46.213Z,99166.34
2018-10-21T12:50:16.573Z,99163.69
2018-10-21T12:52:47.051Z,99159.25
2018-10-21T12:55:17.532Z,99150.23
2018-10-21T12:57:47.857Z,99153.52
2018-10-21T13:00:18.305Z,99150.44
2018-10-21T13:02:48.655Z,99150.38
2018-10-21T13:05:19.001Z,99153.78
2018-10-21T13:07:49.443Z,99145.09
2018-10-21T13:10:19.833Z,99144.41
2018-10-21T13:12:50.298Z,99145.78
2018-10-21T13:15:20.639Z,99142.38
2018-10-21T13:17:51.023Z,99138.91
2018-10-21T13:20:21.589Z,99134.46
2018-10-21T13:22:52.011Z,99131.08
2018-10-21T13:25:22.491Z,99136.03
2018-10-21T13:27:52.995Z,99134.41
2018-10-21T13:30:23.489Z,99141.16
2018-10-21T13:32:53.881Z,99132.33
2018-10-21T13:35:24.309Z,99133.75
2018-10-21T13:37:54.775Z,99128.66
2018-10-21T13:40:25.351Z,99130.47
2018-10-21T13:42:55.811Z,99128.59
2018-10-21T13:45:26.247Z,99125.95
2018-10-21T13:47:59.685Z,99127.58
2018-10-21T13:50:30.159Z,99119.42
2018-10-21T13:53:00.912Z,99123.41
2018-10-21T13:55:31.250Z,99121.48
2018-10-21T13:58:01.779Z,99125.45
2018-10-21T14:00:32.103Z,99115.86
2018-10-21T14:03:02.533Z,99114.89
2018-10-21T14:05:33.163Z,99117.63
2018-10-21T14:08:03.649Z,99119.88
2018-10-21T14:10:34.013Z,99115.17
2018-10-21T14:13:04.373Z,99113.56
2018-10-21T14:15:34.731Z,99107.60
2018-10-21T14:18:05.113Z,99097.48
2018-10-21T14:20:35.519Z,99093.73
2018-10-21T14:23:05.942Z,99094.80
2018-10-21T14:25:36.335Z,99095.88
2018-10-21T14:28:06.613Z,99094.66
2018-10-21T14:30:36.933Z,99087.65
2018-10-21T14:33:07.231Z,99090.30
2018-10-21T14:35:37.502Z,99086.95
2018-10-21T14:38:07.944Z,99088.71
2018-10-21T14:40:38.421Z,99084.12
2018-10-21T14:43:09.357Z,99081.38
2018-10-21T14:45:39.838Z,99081.31
2018-10-21T14:48:10.681Z,99082.72
2018-10-21T14:50:41.289Z,99085.15
2018-10-21T14:56:20.121Z,99077.48
2018-10-21T14:58:56.365Z,99079.75
2018-10-21T15:01:27.289Z,99084.14
2018-10-21T15:03:57.738Z,99085.33
2018-10-21T15:06:34.324Z,99079.63
2018-10-21T15:09:11.941Z,99082.86
2018-10-21T15:11:48.132Z,99075.28
2018-10-21T15:14:33.660Z,99077.25
2018-10-21T15:23:39.476Z,99078.89
2018-10-21T15:26:12.327Z,99075.47
2018-10-21T15:28:43.133Z,99079.27
2018-10-21T15:31:13.896Z,99081.83
2018-10-21T15:33:44.697Z,99083.80
2018-10-21T15:36:20.592Z,99074.14
2018-10-21T15:38:56.872Z,99075.12
2018-10-21T15:41:27.217Z,99078.72
2018-10-21T15:43:57.494Z,99082.30
2018-10-21T15:46:27.868Z,99078.25
2018-10-21T15:48:58.401Z,99076.94
2018-10-21T15:51:28.648Z,99083.70
2018-10-21T15:53:59.048Z,99085.25
2018-10-21T15:56:29.446Z,99088.16
2018-10-21T15:58:59.710Z,99090.41
2018-10-21T16:01:30.146Z,99092.72
2018-10-21T16:04:00.558Z,99088.28
2018-10-21T16:06:30.804Z,99095.59
2018-10-21T16:09:01.418Z,99093.91
2018-10-21T16:11:31.679Z,99097.95
2018-10-21T16:14:02.076Z,99095.27
2018-10-21T16:16:32.261Z,99093.73
2018-10-21T16:19:02.820Z,99098.55
2018-10-21T16:21:33.191Z,99103.48
2018-10-21T16:24:03.724Z,99106.65
2018-10-21T16:26:34.182Z,99109.04
2018-10-21T16:29:04.528Z,99110.23
2018-10-21T16:31:34.868Z,99114.91
2018-10-21T16:34:05.411Z,99116.48
2018-10-21T16:36:36.010Z,99116.18
2018-10-21T16:39:08.606Z,99111.44
2018-10-21T16:41:38.975Z,99117.64
2018-10-21T16:44:09.232Z,99119.36
2018-10-21T16:46:39.572Z,99122.86
2018-10-21T16:49:09.944Z,99122.59
2018-10-21T16:51:40.564Z,99123.63
2018-10-21T16:54:11.013Z,99132.19
2018-10-21T16:56:41.328Z,99122.14
2018-10-21T16:59:11.764Z,99127.24
2018-10-21T17:01:42.291Z,99117.66
2018-10-21T17:04:12.509Z,99122.34
2018-10-21T17:06:42.928Z,99123.39
2018-10-21T17:09:14.448Z,99129.66
2018-10-21T17:11:45.527Z,99127.08
2018-10-21T17:14:15.909Z,99123.36
2018-10-21T17:16:46.469Z,99123.57
2018-10-21T17:19:19.801Z,99126.80
2018-10-21T17:21:50.238Z,99129.93
2018-10-21T17:24:20.723Z,99133.53
2018-10-21T17:26:51.053Z,99133.53
2018-10-21T17:29:21.591Z,99134.20
2018-10-21T17:31:51.929Z,99133.31
2018-10-21T17:34:22.588Z,99137.56
2018-10-21T17:36:52.843Z,99145.16
2018-10-21T17:39:23.838Z,99140.66
2018-10-21T17:41:54.253Z,99140.44
2018-10-21T17:44:24.920Z,99134.05
2018-10-21T17:46:55.261Z,99134.95
2018-10-21T17:49:25.913Z,99133.36
2018-10-21T17:51:56.325Z,99136.08
2018-10-21T17:54:26.916Z,99134.02
2018-10-21T17:56:59.360Z,99144.02
2018-10-21T17:59:30.084Z,99145.03
2018-10-21T18:02:00.527Z,99142.58
2018-10-21T18:04:30.892Z,99147.02
2018-10-21T18:07:01.378Z,99151.48
2018-10-21T18:09:31.620Z,99152.11
2018-10-21T18:12:02.007Z,99150.95
2018-10-21T18:14:32.488Z,99158.66
2018-10-21T18:17:03.638Z,99155.49
2018-10-21T18:19:33.975Z,99150.48
2018-10-21T18:22:04.513Z,99147.52
2018-10-21T18:24:34.950Z,99157.25
2018-10-21T18:27:05.420Z,99157.80
2018-10-21T18:29:35.771Z,99155.34
2018-10-21T18:32:06.200Z,99156.30
2018-10-21T18:34:36.544Z,99158.12
2018-10-21T18:37:07.629Z,99157.89
2018-10-21T18:39:38.168Z,99160.31
2018-10-21T18:42:08.592Z,99160.84
2018-10-21T18:44:39.115Z,99160.45
2018-10-21T18:47:09.464Z,99157.52
2018-10-21T18:49:40.004Z,99162.26
2018-10-21T18:52:10.321Z,99153.20
2018-10-21T18:54:40.776Z,99155.40
2018-10-21T18:57:11.898Z,99154.83
2018-10-21T18:59:44.615Z,99160.53
2018-10-21T19:02:15.128Z,99160.24
2018-10-21T19:04:45.360Z,99158.19
2018-10-21T19:07:16.124Z,99164.79
2018-10-21T19:09:48.144Z,99161.44
2018-10-21T19:12:18.510Z,99165.80
2018-10-21T19:14:49.206Z,99164.95
2018-10-21T19:17:19.524Z,99171.03
2018-10-21T19:19:50.317Z,99174.06
2018-10-21T19:22:20.554Z,99175.78
2018-10-21T19:24:50.910Z,99179.30
2018-10-21T19:27:22.046Z,99172.91
2018-10-21T19:29:53.243Z,99173.81
2018-10-21T19:32:23.518Z,99177.28
2018-10-21T19:34:53.759Z,99175.18
2018-10-21T19:37:23.999Z,99175.18
2018-10-21T19:39:54.356Z,99168.77
2018-10-21T19:42:24.569Z,99166.22
2018-10-21T19:44:54.906Z,99166.61
2018-10-21T19:47:25.164Z,99167.95
2018-10-21T19:49:55.619Z,99176.17
2018-10-21T19:52:25.920Z,99175.36
2018-10-21T19:54:56.253Z,99178.37
2018-10-21T19:57:26.785Z,99171.09
2018-10-21T19:59:57.419Z,99176.72
2018-10-21T20:02:27.765Z,99181.92
2018-10-21T20:04:57.928Z,99183.21
2018-10-21T20:07:28.188Z,99184.97
2018-10-21T20:09:58.814Z,99182.38
2018-10-21T20:12:29.086Z,99185.39
2018-10-21T20:14:59.337Z,99185.42
2018-10-21T20:17:29.644Z,99186.72
2018-10-21T20:20:00.105Z,99184.56
2018-10-21T20:22:30.473Z,99189.73
2018-10-21T20:25:00.888Z,99192.31
2018-10-21T20:27:31.184Z,99193.20
2018-10-21T20:30:01.628Z,99197.50
2018-10-21T20:32:31.833Z,99196.66
2018-10-21T20:35:02.180Z,99198.41
2018-10-21T20:37:32.483Z,99204.42
2018-10-21T20:40:02.983Z,99207.02
2018-10-21T20:42:33.320Z,99203.59
2018-10-21T20:45:03.696Z,99203.59
2018-10-21T20:47:33.959Z,99201.87
2018-10-21T20:50:04.786Z,99205.31
2018-10-21T20:52:35.096Z,99210.49
2018-10-21T20:55:05.407Z,99218.23
2018-10-21T20:57:35.775Z,99214.34
2018-10-21T21:00:06.250Z,99211.78
2018-10-21T21:02:36.532Z,99212.20
2018-10-21T21:05:08.360Z,99212.64
2018-10-21T21:07:38.716Z,99213.50
2018-10-21T21:10:11.546Z,99210.48
2018-10-21T21:12:41.943Z,99204.45
2018-10-21T21:15:12.668Z,99208.73
2018-10-21T21:17:43.103Z,99208.75
2018-10-21T21:20:13.734Z,99208.74
2018-10-21T21:22:44.187Z,99211.30
2018-10-21T21:25:14.479Z,99204.85
2018-10-21T21:27:44.765Z,99206.98
2018-10-21T21:30:14.999Z,99215.17
2018-10-21T21:32:45.443Z,99213.02
2018-10-21T21:35:15.824Z,99210.86
2018-10-21T21:37:46.209Z,99205.29
2018-10-21T21:40:16.666Z,99202.25
2018-10-21T21:42:46.995Z,99201.39
2018-10-21T21:45:17.302Z,99208.27
2018-10-21T21:47:47.601Z,99203.91
2018-10-21T21:50:18.029Z,99199.57
2018-10-21T21:52:48.301Z,99204.31
2018-10-21T21:55:18.559Z,99208.55
2018-10-21T21:57:49.090Z,99202.09
2018-10-21T22:00:19.760Z,99204.64
2018-10-21T22:02:50.348Z,99203.33
2018-10-21T22:05:20.974Z,99203.31
2018-10-21T22:07:51.445Z,99202.44
2018-10-21T22:10:21.685Z,99202.88
2018-10-21T22:12:51.911Z,99206.71
2018-10-21T22:15:22.277Z,99201.16
2018-10-21T22:17:52.804Z,99199.05
2018-10-21T22:20:23.165Z,99205.44
2018-10-21T22:22:53.565Z,99199.81
2018-10-21T22:25:24.235Z,99201.06
2018-10-21T22:27:54.727Z,99205.38
2018-10-21T22:30:24.968Z,99205.38
2018-10-21T22:32:55.258Z,99207.48
2018-10-21T22:35:25.597Z,99199.70
2018-10-21T22:37:55.887Z,99203.52
2018-10-21T22:40:26.254Z,99200.13
2018-10-21T22:42:56.599Z,99195.86
2018-10-21T22:45:27.764Z,99197.12
2018-10-21T22:47:58.096Z,99194.07
2018-10-21T22:50:28.572Z,99194.91
2018-10-21T22:52:58.977Z,99197.00
2018-10-21T22:55:29.436Z,99195.69
2018-10-21T22:57:59.758Z,99201.67
2018-10-21T23:00:30.053Z,99206.77
2018-10-21T23:03:00.351Z,99203.38
2018-10-21T23:05:30.734Z,99198.64
2018-10-21T23:08:01.366Z,99200.30
2018-10-21T23:10:31.606Z,99197.72
2018-10-21T23:13:02.116Z,99198.58
2018-10-21T23:15:34.855Z,99192.98
2018-10-21T23:18:05.404Z,99197.67
2018-10-21T23:20:35.873Z,99193.84
2018-10-21T23:23:06.453Z,99189.99
2018-10-21T23:25:36.777Z,99191.65
2018-10-21T23:28:07.093Z,99188.63
2018-10-21T23:30:37.338Z,99189.03
2018-10-21T23:33:07.634Z,99187.25
2018-10-21T23:35:38.000Z,99188.95
2018-10-21T23:38:08.284Z,99191.97
2018-10-21T23:40:38.778Z,99189.80
2018-10-21T23:43:09.064Z,99191.09
2018-10-21T23:45:39.390Z,99189.40
2018-10-21T23:48:09.655Z,99188.98
2018-10-21T23:50:39.935Z,99191.15
2018-10-21T23:53:10.296Z,99192.45
2018-10-21T23:55:40.652Z,99191.59
2018-10-21T23:58:11.136Z,99192.45
